Time;durP1;ratioP1;P1;durP2;ratioP2;P2;SDS_P1;SDS_P2;PMS_P1;PMS_P2;Temp;Humidity;BMP_temperature;BMP_pressure;BME280_temperature;BME280_humidity;BME280_pressure;Samples;Min_cycle;Max_cycle;Signal;HPM_P1;HPM_P2
2022/01/09 00:02:02;;;;;;;6.50;4.20;;;5.00;99.90;;;;;;5111667;28;20038;-70
2022/01/09 00:04:28;;;;;;;6.68;4.00;;;5.00;99.90;;;;;;5115536;28;20518;-70
2022/01/09 00:06:53;;;;;;;7.15;4.47;;;5.20;99.90;;;;;;5115524;28;20071;-70
2022/01/09 00:09:19;;;;;;;6.32;3.97;;;5.10;99.90;;;;;;5097729;28;20079;-70
2022/01/09 00:11:44;;;;;;;7.35;4.47;;;5.10;99.90;;;;;;5115651;28;20088;-71
2022/01/09 00:14:10;;;;;;;6.97;4.82;;;5.00;99.90;;;;;;5098693;28;20047;-70
2022/01/09 00:16:35;;;;;;;7.60;4.97;;;5.00;99.90;;;;;;5115563;28;20494;-70
2022/01/09 00:19:01;;;;;;;6.40;4.63;;;5.00;99.90;;;;;;5114410;28;20067;-70
2022/01/09 00:21:27;;;;;;;6.20;4.07;;;5.00;99.90;;;;;;5119265;28;20046;-70
2022/01/09 00:23:52;;;;;;;8.57;5.00;;;5.00;99.90;;;;;;5121218;28;20046;-71
2022/01/09 00:26:18;;;;;;;6.97;4.82;;;4.90;99.90;;;;;;5094641;28;20039;-71
2022/01/09 00:28:43;;;;;;;6.40;4.80;;;4.90;99.90;;;;;;5093531;28;20383;-70
2022/01/09 00:31:09;;;;;;;6.85;4.63;;;5.00;99.90;;;;;;5113278;28;20108;-70
2022/01/09 00:33:35;;;;;;;6.43;4.25;;;5.00;99.90;;;;;;5114789;28;20511;-70
2022/01/09 00:36:00;;;;;;;7.50;5.00;;;4.90;99.90;;;;;;5114227;28;20095;-70
2022/01/09 00:38:26;;;;;;;7.15;4.82;;;4.90;99.90;;;;;;5098421;28;20050;-71
2022/01/09 00:40:52;;;;;;;7.20;4.97;;;5.00;99.90;;;;;;5114379;28;20031;-70
2022/01/09 00:43:17;;;;;;;8.60;5.82;;;4.90;99.90;;;;;;5115306;28;20170;-71
2022/01/09 00:45:43;;;;;;;7.22;5.35;;;4.90;99.90;;;;;;5114362;28;20035;-71
2022/01/09 00:48:10;;;;;;;7.43;5.50;;;4.90;99.90;;;;;;5116326;27;20039;-71
2022/01/09 00:50:38;;;;;;;7.75;5.18;;;4.90;99.90;;;;;;5117982;27;20045;-71
2022/01/09 00:53:04;;;;;;;7.63;5.60;;;4.90;99.90;;;;;;5119152;27;20038;-71
2022/01/09 00:55:30;;;;;;;7.55;5.43;;;4.90;99.90;;;;;;5103226;27;20042;-71
2022/01/09 00:57:55;;;;;;;8.85;6.40;;;4.90;99.90;;;;;;5102270;27;20076;-71
2022/01/09 01:00:21;;;;;;;8.02;5.95;;;5.00;99.90;;;;;;5117777;27;20487;-70
2022/01/09 01:02:47;;;;;;;7.85;5.53;;;5.00;99.90;;;;;;5119178;27;20414;-71
2022/01/09 01:05:12;;;;;;;8.30;5.93;;;5.00;99.90;;;;;;5116633;27;20047;-70
2022/01/09 01:07:38;;;;;;;7.07;5.18;;;5.00;99.90;;;;;;5102092;27;20483;-71
2022/01/09 01:10:04;;;;;;;7.90;5.80;;;5.00;99.90;;;;;;5101198;27;20495;-71
2022/01/09 01:12:31;;;;;;;7.70;5.97;;;5.00;99.90;;;;;;5118939;27;20474;-71
2022/01/09 01:14:57;;;;;;;7.72;6.18;;;5.00;99.90;;;;;;5093098;27;20088;-70
2022/01/09 01:17:23;;;;;;;8.50;6.05;;;5.00;99.90;;;;;;5118732;27;20544;-70
2022/01/09 01:19:49;;;;;;;8.00;6.30;;;5.00;99.90;;;;;;5100593;27;20043;-70
2022/01/09 01:22:16;;;;;;;8.70;6.75;;;5.10;99.90;;;;;;5118553;27;20487;-70
2022/01/09 01:24:42;;;;;;;9.05;6.68;;;5.10;99.90;;;;;;5116464;27;20031;-71
2022/01/09 01:27:09;;;;;;;7.88;6.28;;;5.00;99.90;;;;;;5101386;27;20506;-71
2022/01/09 01:29:36;;;;;;;8.88;7.28;;;5.10;99.90;;;;;;5115797;27;20035;-71
2022/01/09 01:32:02;;;;;;;9.68;7.85;;;5.00;99.90;;;;;;5101379;27;20043;-71
2022/01/09 01:34:28;;;;;;;10.13;7.25;;;4.90;99.90;;;;;;5099908;27;20077;-71
2022/01/09 01:36:53;;;;;;;9.85;7.97;;;5.00;99.90;;;;;;5118337;27;20079;-72
2022/01/09 01:39:20;;;;;;;9.15;7.20;;;5.10;99.90;;;;;;5116949;27;20042;-71
2022/01/09 01:41:45;;;;;;;8.95;7.28;;;5.10;99.90;;;;;;5101326;27;20043;-71
2022/01/09 01:44:12;;;;;;;9.63;7.72;;;5.00;99.90;;;;;;5096896;28;20040;-71
2022/01/09 01:46:39;;;;;;;8.93;7.40;;;5.00;99.90;;;;;;5108550;27;20035;-71
2022/01/09 01:49:06;;;;;;;9.05;7.25;;;5.00;99.90;;;;;;5099345;27;20126;-71
2022/01/09 01:51:34;;;;;;;9.00;7.03;;;5.00;99.90;;;;;;5100955;27;20042;-71
2022/01/09 01:54:01;;;;;;;9.63;7.30;;;5.00;99.90;;;;;;5113665;27;20046;-71
2022/01/09 01:56:27;;;;;;;9.85;7.88;;;5.10;99.90;;;;;;5135331;27;20045;-71
2022/01/09 01:58:53;;;;;;;10.00;8.15;;;5.10;99.90;;;;;;5118043;27;20039;-71
2022/01/09 02:01:19;;;;;;;11.00;8.75;;;5.00;99.90;;;;;;5100226;27;20031;-71
2022/01/09 02:03:44;;;;;;;10.23;8.52;;;4.90;99.90;;;;;;5106559;27;20031;-71
2022/01/09 02:06:14;;;;;;;10.68;7.90;;;4.80;99.90;;;;;;5101024;27;20134;-71
2022/01/09 02:08:41;;;;;;;9.52;7.95;;;4.90;99.90;;;;;;5084501;28;20104;-72
2022/01/09 02:11:06;;;;;;;8.70;6.60;;;5.10;99.90;;;;;;5080624;28;20039;-71
2022/01/09 02:13:32;;;;;;;8.20;6.03;;;5.20;99.90;;;;;;5093738;27;20035;-71
2022/01/09 02:16:00;;;;;;;8.27;6.30;;;5.30;99.90;;;;;;5099611;27;20118;-71
2022/01/09 02:18:25;;;;;;;9.40;7.25;;;5.20;99.90;;;;;;5116792;27;20047;-71
2022/01/09 02:20:51;;;;;;;10.00;7.47;;;5.20;99.90;;;;;;5113009;28;20032;-71
2022/01/09 02:23:18;;;;;;;11.77;8.88;;;5.20;99.90;;;;;;5098820;27;20067;-71
2022/01/09 02:25:46;;;;;;;10.07;7.20;;;5.00;99.90;;;;;;5114803;27;20043;-71
2022/01/09 02:28:13;;;;;;;10.05;7.78;;;5.10;99.90;;;;;;5122245;27;20092;-70
2022/01/09 02:30:40;;;;;;;9.25;7.03;;;5.20;99.90;;;;;;5100157;27;20035;-70
2022/01/09 02:33:08;;;;;;;9.80;7.10;;;5.30;99.90;;;;;;5115382;27;20049;-70
2022/01/09 02:35:35;;;;;;;9.77;7.32;;;5.40;99.90;;;;;;5099825;27;20047;-70
2022/01/09 02:38:03;;;;;;;9.35;6.80;;;5.30;99.90;;;;;;5105132;28;20075;-70
2022/01/09 02:40:29;;;;;;;11.05;7.82;;;5.30;99.90;;;;;;5096495;28;20039;-70
2022/01/09 02:42:55;;;;;;;9.65;7.13;;;5.40;99.90;;;;;;5105764;27;20108;-71
2022/01/09 02:45:23;;;;;;;10.40;7.85;;;5.30;99.90;;;;;;5096342;27;20039;-71
2022/01/09 02:47:50;;;;;;;8.68;6.65;;;5.20;99.90;;;;;;5111391;27;20039;-71
2022/01/09 02:50:31;;;;;;;10.18;7.85;;;5.20;99.90;;;;;;5115940;27;20046;-71
2022/01/09 02:53:13;;;;;;;11.27;8.40;;;5.20;99.90;;;;;;5116104;27;20050;-71
2022/01/09 02:55:38;;;;;;;11.38;8.20;;;5.00;99.90;;;;;;5113183;27;20071;-71
2022/01/09 02:58:04;;;;;;;9.60;6.97;;;4.90;99.90;;;;;;5104038;27;20067;-72
2022/01/09 03:00:32;;;;;;;10.95;7.88;;;5.10;99.90;;;;;;5099583;27;20565;-72
2022/01/09 03:02:59;;;;;;;11.25;7.18;;;5.00;99.90;;;;;;5098713;27;20459;-72
2022/01/09 03:05:25;;;;;;;12.30;7.82;;;5.00;99.90;;;;;;5116868;27;20130;-72
2022/01/09 03:07:52;;;;;;;10.80;6.78;;;4.90;99.90;;;;;;5112876;27;20039;-71
2022/01/09 03:10:19;;;;;;;11.23;6.20;;;4.90;99.90;;;;;;5115445;27;20039;-72
2022/01/09 03:12:50;;;;;;;9.13;6.03;;;4.90;99.90;;;;;;5114460;27;20110;-72
2022/01/09 03:15:17;;;;;;;12.32;5.97;;;4.90;99.90;;;;;;5115189;27;20039;-71
2022/01/09 03:17:43;;;;;;;10.77;5.45;;;5.00;99.90;;;;;;5115344;27;20035;-72
2022/01/09 03:20:19;;;;;;;10.57;5.88;;;5.00;99.90;;;;;;5098176;27;20043;-72
2022/01/09 03:22:45;;;;;;;12.73;5.60;;;5.00;99.90;;;;;;5116251;27;20039;-72
2022/01/09 03:25:11;;;;;;;13.70;5.78;;;5.10;99.90;;;;;;5098465;28;20161;-72
2022/01/09 03:27:38;;;;;;;16.05;5.93;;;5.10;99.90;;;;;;5091297;27;20554;-72
2022/01/09 03:30:05;;;;;;;14.85;4.50;;;5.10;99.90;;;;;;5111287;28;20036;-72
2022/01/09 03:32:31;;;;;;;13.82;3.92;;;5.20;99.90;;;;;;5095797;28;20049;-72
2022/01/09 03:34:57;;;;;;;9.43;3.55;;;5.20;99.90;;;;;;5097875;27;20051;-72
2022/01/09 03:37:22;;;;;;;15.50;4.15;;;5.20;99.90;;;;;;5097284;27;20035;-72
2022/01/09 03:39:48;;;;;;;13.75;3.75;;;5.30;99.90;;;;;;5114880;27;20038;-72
2022/01/09 03:42:13;;;;;;;12.38;3.20;;;5.30;99.90;;;;;;5115254;27;20506;-72
2022/01/09 03:44:39;;;;;;;11.60;2.97;;;5.30;99.90;;;;;;5114906;27;20027;-72
2022/01/09 03:47:04;;;;;;;15.20;3.40;;;5.40;99.90;;;;;;5114352;27;20043;-71
2022/01/09 03:49:30;;;;;;;14.85;3.22;;;5.40;99.90;;;;;;5114764;27;20050;-71
2022/01/09 03:51:57;;;;;;;20.67;3.85;;;5.40;99.90;;;;;;5098869;28;20039;-71
2022/01/09 03:54:23;;;;;;;15.52;3.45;;;5.50;99.90;;;;;;5097253;28;20411;-71
2022/01/09 03:56:50;;;;;;;22.73;4.22;;;5.60;99.90;;;;;;5097823;28;20031;-71
2022/01/09 03:59:16;;;;;;;29.55;4.30;;;5.60;99.90;;;;;;5115686;28;20035;-71
2022/01/09 04:01:42;;;;;;;30.08;4.65;;;5.70;99.90;;;;;;5097862;28;20057;-71
2022/01/09 04:04:08;;;;;;;23.02;3.72;;;5.70;99.90;;;;;;5114660;28;20042;-71
2022/01/09 04:06:34;;;;;;;25.27;3.70;;;5.70;99.90;;;;;;5112641;28;20069;-70
2022/01/09 04:09:06;;;;;;;23.88;4.10;;;5.70;99.90;;;;;;5096453;28;20418;-71
2022/01/09 04:11:37;;;;;;;21.55;3.75;;;5.70;99.90;;;;;;5098624;28;20057;-70
2022/01/09 04:14:03;;;;;;;28.20;4.05;;;5.80;99.90;;;;;;5101193;28;20383;-70
2022/01/09 04:16:28;;;;;;;25.58;4.20;;;5.70;99.90;;;;;;5132751;28;20027;-70
2022/01/09 04:18:54;;;;;;;32.33;4.82;;;5.80;99.90;;;;;;5098283;28;20096;-70
2022/01/09 04:21:20;;;;;;;30.10;6.00;;;5.80;99.90;;;;;;5114558;28;20061;-70
2022/01/09 04:23:45;;;;;;;30.98;4.10;;;5.90;99.90;;;;;;5097167;27;20053;-70
2022/01/09 04:26:11;;;;;;;37.08;5.05;;;5.90;99.90;;;;;;5117204;27;20046;-70
2022/01/09 04:28:36;;;;;;;33.70;4.70;;;6.00;99.90;;;;;;5096231;27;20032;-70
2022/01/09 04:31:02;;;;;;;40.63;4.70;;;6.00;99.90;;;;;;5104857;27;20096;-70
2022/01/09 04:33:28;;;;;;;31.90;4.90;;;6.00;99.90;;;;;;5102464;27;20039;-70
2022/01/09 04:35:53;;;;;;;28.00;3.88;;;6.00;99.90;;;;;;5124600;27;20043;-70
2022/01/09 04:38:19;;;;;;;32.08;5.20;;;6.00;99.90;;;;;;5107015;27;20039;-70
2022/01/09 04:40:45;;;;;;;31.83;4.40;;;6.10;99.90;;;;;;5102224;27;20028;-70
2022/01/09 04:43:12;;;;;;;35.60;4.40;;;6.10;99.90;;;;;;5133159;27;20066;-70
2022/01/09 04:45:38;;;;;;;26.58;3.95;;;6.10;99.90;;;;;;5112195;27;20054;-70
2022/01/09 04:48:07;;;;;;;22.42;3.60;;;6.10;99.90;;;;;;5092271;27;20031;-70
2022/01/09 04:50:35;;;;;;;33.10;4.05;;;6.10;99.90;;;;;;5075539;27;21268;-70
2022/01/09 04:53:05;;;;;;;29.10;4.43;;;6.00;99.90;;;;;;5076129;27;20203;-70
2022/01/09 04:55:33;;;;;;;26.55;4.85;;;6.00;99.90;;;;;;5090691;27;20497;-70
2022/01/09 04:57:59;;;;;;;25.55;4.40;;;6.10;99.90;;;;;;5092348;27;20054;-70
2022/01/09 05:00:25;;;;;;;25.58;3.83;;;6.10;99.90;;;;;;5099718;27;20412;-69
2022/01/09 05:02:50;;;;;;;29.35;4.57;;;6.10;99.90;;;;;;5095179;27;20035;-69
2022/01/09 05:05:17;;;;;;;23.35;4.07;;;6.00;99.90;;;;;;5105362;27;20047;-70
2022/01/09 05:07:43;;;;;;;28.00;3.83;;;6.00;99.90;;;;;;5099736;27;20062;-69
2022/01/09 05:10:10;;;;;;;26.83;4.60;;;6.00;99.90;;;;;;5086405;27;20047;-69
2022/01/09 05:12:36;;;;;;;23.25;3.25;;;6.00;99.90;;;;;;5111307;27;20050;-70
2022/01/09 05:15:04;;;;;;;21.73;2.92;;;6.00;99.90;;;;;;5107054;27;20039;-69
2022/01/09 05:17:29;;;;;;;23.38;3.88;;;6.10;99.90;;;;;;5109006;27;20058;-69
2022/01/09 05:19:57;;;;;;;29.42;3.88;;;6.00;99.90;;;;;;5113590;27;20039;-69
2022/01/09 05:22:32;;;;;;;25.02;3.50;;;6.00;99.90;;;;;;5094669;27;20042;-70
2022/01/09 05:24:58;;;;;;;23.58;3.60;;;6.00;99.90;;;;;;5108028;27;20740;-69
2022/01/09 05:27:25;;;;;;;27.88;3.58;;;6.00;99.90;;;;;;5115372;27;20039;-69
2022/01/09 05:29:51;;;;;;;25.27;3.50;;;6.00;99.90;;;;;;5117605;27;20046;-69
2022/01/09 05:32:17;;;;;;;19.35;3.70;;;6.00;99.90;;;;;;5107516;27;20039;-69
2022/01/09 05:34:43;;;;;;;21.10;3.88;;;6.00;99.90;;;;;;5096877;27;20027;-70
2022/01/09 05:37:08;;;;;;;22.38;3.30;;;6.00;99.90;;;;;;5096950;27;20053;-69
2022/01/09 05:39:35;;;;;;;21.17;3.38;;;6.00;99.90;;;;;;5113167;27;20051;-70
2022/01/09 05:42:03;;;;;;;20.85;3.60;;;6.00;99.90;;;;;;5120303;27;20023;-69
2022/01/09 05:44:29;;;;;;;17.45;3.28;;;6.00;99.90;;;;;;5118383;27;20035;-69
2022/01/09 05:46:54;;;;;;;19.35;2.85;;;6.00;99.90;;;;;;5114597;27;20042;-69
2022/01/09 05:49:20;;;;;;;22.10;3.00;;;5.90;99.90;;;;;;5112188;27;20049;-69
2022/01/09 05:51:46;;;;;;;23.40;3.33;;;5.90;99.90;;;;;;5113147;27;20054;-69
2022/01/09 05:54:12;;;;;;;19.25;3.10;;;5.90;99.90;;;;;;5117816;27;20082;-69
2022/01/09 05:56:37;;;;;;;22.33;3.13;;;5.80;99.90;;;;;;5110499;27;20043;-69
2022/01/09 05:59:03;;;;;;;18.75;2.50;;;5.80;99.90;;;;;;5103498;27;20063;-70
2022/01/09 06:01:28;;;;;;;18.67;2.63;;;5.90;99.90;;;;;;5126702;27;20088;-70
2022/01/09 06:03:54;;;;;;;15.93;2.38;;;5.90;99.90;;;;;;5113834;27;20038;-69
2022/01/09 06:06:20;;;;;;;23.83;3.72;;;5.80;99.90;;;;;;5096289;27;20035;-69
2022/01/09 06:08:45;;;;;;;18.30;3.13;;;5.80;99.90;;;;;;5100161;27;20066;-69
2022/01/09 06:11:11;;;;;;;14.88;2.40;;;5.80;99.90;;;;;;5112170;27;20050;-69
2022/01/09 06:13:36;;;;;;;21.73;3.20;;;5.80;99.90;;;;;;5111814;27;20058;-69
2022/01/09 06:16:03;;;;;;;13.65;2.13;;;5.80;99.90;;;;;;5096915;27;20088;-69
2022/01/09 06:18:29;;;;;;;19.17;2.78;;;5.80;99.90;;;;;;5111756;27;20043;-69
2022/01/09 06:20:54;;;;;;;13.77;2.40;;;5.80;99.90;;;;;;5095438;27;20050;-69
2022/01/09 06:23:20;;;;;;;23.75;2.92;;;5.70;99.90;;;;;;5111628;27;20054;-69
2022/01/09 06:25:47;;;;;;;23.13;2.80;;;5.70;99.90;;;;;;5095433;27;20084;-69
2022/01/09 06:28:13;;;;;;;17.48;3.13;;;5.80;99.90;;;;;;5120509;27;21569;-69
2022/01/09 06:30:39;;;;;;;22.35;2.85;;;5.70;99.90;;;;;;5111013;27;20044;-69
2022/01/09 06:33:05;;;;;;;17.05;2.05;;;5.70;99.90;;;;;;5116536;27;20057;-69
2022/01/09 06:35:30;;;;;;;15.32;3.00;;;5.70;99.90;;;;;;5095093;27;20063;-69
2022/01/09 06:37:56;;;;;;;24.38;3.53;;;5.70;99.90;;;;;;5095573;27;20046;-69
2022/01/09 06:40:22;;;;;;;16.75;2.88;;;5.70;99.90;;;;;;5111938;27;20035;-69
2022/01/09 06:42:47;;;;;;;19.83;2.75;;;5.70;99.90;;;;;;5112127;27;20042;-69
2022/01/09 06:45:13;;;;;;;15.80;2.22;;;5.60;99.90;;;;;;5111312;27;20031;-69
2022/01/09 06:47:39;;;;;;;14.82;2.90;;;5.60;99.90;;;;;;5094746;27;20083;-69
2022/01/09 06:50:05;;;;;;;21.50;2.72;;;5.60;99.90;;;;;;5111441;27;20047;-69
2022/01/09 06:52:31;;;;;;;17.95;2.58;;;5.60;99.90;;;;;;5111687;27;20068;-69
2022/01/09 06:54:56;;;;;;;15.98;2.58;;;5.60;99.90;;;;;;5112084;27;20039;-69
2022/01/09 06:57:22;;;;;;;20.00;2.60;;;5.60;99.90;;;;;;5093503;27;20036;-69
2022/01/09 06:59:48;;;;;;;17.88;2.72;;;5.50;99.90;;;;;;5111666;27;20117;-69
2022/01/09 07:02:13;;;;;;;17.83;2.38;;;5.50;99.90;;;;;;5093753;27;20039;-69
2022/01/09 07:04:39;;;;;;;13.57;3.08;;;5.60;99.90;;;;;;5111460;27;20032;-69
2022/01/09 07:07:05;;;;;;;15.95;3.30;;;5.60;99.90;;;;;;5093707;27;20037;-69
2022/01/09 07:09:30;;;;;;;17.48;3.67;;;5.60;99.90;;;;;;5111685;27;20123;-69
2022/01/09 07:11:56;;;;;;;17.48;2.85;;;5.60;99.90;;;;;;5124797;27;20513;-69
2022/01/09 07:14:22;;;;;;;17.42;2.95;;;5.60;99.90;;;;;;5092416;27;20081;-69
2022/01/09 07:16:47;;;;;;;17.00;2.65;;;5.60;99.90;;;;;;5110181;27;20394;-69
2022/01/09 07:19:13;;;;;;;16.67;2.90;;;5.50;99.90;;;;;;5108658;27;20043;-69
2022/01/09 07:21:38;;;;;;;15.88;2.42;;;5.60;99.90;;;;;;5097930;27;20046;-69
2022/01/09 07:24:04;;;;;;;18.38;2.58;;;5.50;99.90;;;;;;5098746;27;20035;-69
2022/01/09 07:26:30;;;;;;;17.60;2.58;;;5.50;99.90;;;;;;5094097;27;20039;-69
2022/01/09 07:28:56;;;;;;;13.68;2.42;;;5.50;99.90;;;;;;5110558;27;20394;-69
2022/01/09 07:31:21;;;;;;;16.88;2.28;;;5.50;99.90;;;;;;5097137;27;20554;-69
2022/01/09 07:33:47;;;;;;;16.33;2.90;;;5.40;99.90;;;;;;5114890;27;20031;-69
2022/01/09 07:36:14;;;;;;;19.30;3.15;;;5.40;99.90;;;;;;5114739;27;20074;-69
2022/01/09 07:38:40;;;;;;;14.15;1.92;;;5.40;99.90;;;;;;5111967;27;20062;-69
2022/01/09 07:41:05;;;;;;;16.33;3.75;;;5.40;99.90;;;;;;5110199;27;20518;-69
2022/01/09 07:43:31;;;;;;;17.10;3.13;;;5.50;99.90;;;;;;5109266;27;20043;-69
2022/01/09 07:45:56;;;;;;;11.43;2.38;;;5.40;99.90;;;;;;5112372;27;20039;-69
2022/01/09 07:48:23;;;;;;;14.20;1.98;;;5.40;99.90;;;;;;5098355;28;20074;-69
2022/01/09 07:50:49;;;;;;;12.50;1.90;;;5.40;99.90;;;;;;5107762;27;20046;-69
2022/01/09 07:53:17;;;;;;;18.38;2.67;;;5.40;99.90;;;;;;5111154;28;20031;-69
2022/01/09 07:55:43;;;;;;;18.00;2.55;;;5.40;99.90;;;;;;5109666;28;20047;-69
2022/01/09 07:58:08;;;;;;;15.88;2.10;;;5.30;99.90;;;;;;5092429;28;20092;-69
2022/01/09 08:00:34;;;;;;;10.38;1.95;;;5.30;99.90;;;;;;5093313;28;20031;-69
2022/01/09 08:02:59;;;;;;;15.98;2.08;;;5.30;99.90;;;;;;5092016;28;20066;-69
2022/01/09 08:05:25;;;;;;;11.07;2.35;;;5.20;99.90;;;;;;5092255;28;20059;-69
2022/01/09 08:07:51;;;;;;;15.05;2.25;;;5.30;99.90;;;;;;5092269;28;20042;-69
2022/01/09 08:10:16;;;;;;;13.82;2.42;;;5.20;99.90;;;;;;5108095;28;20042;-69
2022/01/09 08:12:42;;;;;;;12.55;2.03;;;5.20;99.90;;;;;;5092494;28;20043;-69
2022/01/09 08:15:08;;;;;;;16.67;2.08;;;5.20;99.90;;;;;;5109210;28;20043;-69
2022/01/09 08:17:34;;;;;;;14.13;2.38;;;5.20;99.90;;;;;;5092512;28;20122;-69
2022/01/09 08:19:59;;;;;;;14.52;2.42;;;5.20;99.90;;;;;;5109504;28;20123;-69
2022/01/09 08:22:29;;;;;;;17.85;2.40;;;5.20;99.90;;;;;;5109376;28;20035;-68
2022/01/09 08:24:55;;;;;;;14.13;2.10;;;5.20;99.90;;;;;;5108229;28;20043;-69
2022/01/09 08:27:21;;;;;;;15.35;1.88;;;5.20;99.90;;;;;;5092623;28;20134;-69
2022/01/09 08:29:47;;;;;;;14.52;2.65;;;5.10;99.90;;;;;;5091985;28;20166;-68
2022/01/09 08:32:13;;;;;;;11.80;2.55;;;5.20;99.90;;;;;;5101648;28;20043;-69
2022/01/09 08:34:39;;;;;;;10.68;1.77;;;5.20;99.90;;;;;;5092732;28;20044;-69
2022/01/09 08:37:11;;;;;;;9.00;2.08;;;5.10;99.90;;;;;;5093692;28;20089;-69
2022/01/09 08:39:37;;;;;;;9.30;1.73;;;5.10;99.90;;;;;;5092400;28;20114;-69
2022/01/09 08:42:03;;;;;;;14.38;2.00;;;5.20;99.90;;;;;;5092515;28;20040;-68
2022/01/09 08:44:29;;;;;;;12.50;1.70;;;5.10;99.90;;;;;;5107885;28;20043;-69
2022/01/09 08:46:54;;;;;;;10.77;1.58;;;5.10;99.90;;;;;;5109552;28;20050;-68
2022/01/09 08:49:20;;;;;;;12.43;1.75;;;5.10;99.90;;;;;;5091503;28;20050;-69
2022/01/09 08:51:45;;;;;;;15.75;1.83;;;5.10;99.90;;;;;;5092015;28;20100;-68
2022/01/09 08:54:11;;;;;;;10.15;1.45;;;5.10;99.90;;;;;;5092013;28;20084;-68
2022/01/09 08:56:38;;;;;;;12.73;1.83;;;5.10;99.90;;;;;;5109440;28;20118;-69
2022/01/09 08:59:05;;;;;;;12.15;1.83;;;5.10;99.90;;;;;;5090937;28;20126;-69
2022/01/09 09:01:30;;;;;;;9.32;1.40;;;5.10;99.90;;;;;;5092078;28;20039;-68
2022/01/09 09:03:56;;;;;;;11.88;1.55;;;5.10;99.90;;;;;;5095847;28;20458;-68
2022/01/09 09:06:21;;;;;;;11.65;1.77;;;5.10;99.90;;;;;;5091475;28;20039;-68
2022/01/09 09:08:47;;;;;;;13.73;2.40;;;5.00;99.90;;;;;;5092385;27;20122;-69
2022/01/09 09:11:12;;;;;;;12.27;2.60;;;5.00;99.90;;;;;;5095236;27;20039;-69
2022/01/09 09:13:39;;;;;;;11.98;2.03;;;5.10;99.90;;;;;;5094535;27;20497;-69
2022/01/09 09:16:05;;;;;;;15.82;2.08;;;5.10;99.90;;;;;;5095620;27;20403;-69
2022/01/09 09:18:31;;;;;;;14.63;2.28;;;5.20;99.90;;;;;;5095283;27;20057;-81
2022/01/09 09:20:57;;;;;;;12.80;2.00;;;5.20;99.90;;;;;;5096202;27;20430;-82
2022/01/09 09:23:23;;;;;;;13.82;2.38;;;5.20;99.90;;;;;;5095696;27;20114;-74
2022/01/09 09:25:49;;;;;;;8.93;1.42;;;5.20;99.90;;;;;;5095516;27;20084;-73
2022/01/09 09:28:15;;;;;;;13.20;2.47;;;5.30;99.90;;;;;;5095325;27;20138;-70
2022/01/09 09:30:41;;;;;;;11.65;2.03;;;5.30;99.90;;;;;;5095078;27;20131;-70
2022/01/09 09:33:07;;;;;;;16.60;2.95;;;5.30;99.90;;;;;;5094505;27;20043;-70
2022/01/09 09:35:33;;;;;;;16.52;1.75;;;5.30;99.90;;;;;;5091500;28;20554;-70
2022/01/09 09:37:59;;;;;;;12.23;2.00;;;5.30;99.90;;;;;;5107991;28;20492;-70
2022/01/09 09:40:26;;;;;;;9.55;2.08;;;5.30;99.90;;;;;;5111165;28;20088;-69
2022/01/09 09:42:52;;;;;;;12.90;1.80;;;5.40;99.90;;;;;;5107333;28;20038;-70
2022/01/09 09:45:18;;;;;;;13.38;2.20;;;5.40;99.90;;;;;;5096349;28;20440;-70
2022/01/09 09:47:44;;;;;;;9.48;1.65;;;5.40;99.90;;;;;;5096530;28;20134;-70
2022/01/09 09:50:12;;;;;;;12.75;2.03;;;5.40;99.90;;;;;;5096094;28;20074;-70
2022/01/09 09:52:39;;;;;;;11.05;1.75;;;5.30;99.90;;;;;;5112937;28;20035;-70
2022/01/09 09:55:05;;;;;;;9.73;1.70;;;5.40;99.90;;;;;;5113765;28;20111;-70
2022/01/09 09:57:31;;;;;;;10.52;1.85;;;5.40;99.90;;;;;;5113092;28;20060;-70
2022/01/09 10:00:15;;;;;;;15.55;2.25;;;5.40;99.90;;;;;;5113177;28;20032;-70
2022/01/09 10:02:48;;;;;;;9.82;1.45;;;5.40;99.90;;;;;;5113305;28;20172;-70
2022/01/09 10:05:22;;;;;;;10.13;1.90;;;5.40;99.90;;;;;;5111633;28;20054;-70
2022/01/09 10:07:47;;;;;;;9.90;1.65;;;5.40;99.90;;;;;;5108096;28;20399;-70
2022/01/09 10:10:19;;;;;;;7.43;1.70;;;5.30;99.90;;;;;;5112126;28;20067;-70
2022/01/09 10:12:47;;;;;;;10.05;1.65;;;5.40;99.90;;;;;;5095643;28;20035;-70
2022/01/09 10:15:19;;;;;;;11.90;1.65;;;5.40;99.90;;;;;;5095488;28;20044;-70
2022/01/09 10:17:50;;;;;;;8.60;1.63;;;5.50;99.90;;;;;;5112876;28;20487;-70
2022/01/09 10:20:21;;;;;;;8.27;1.40;;;5.40;99.90;;;;;;5096120;28;20082;-70
2022/01/09 10:22:50;;;;;;;10.07;1.52;;;5.40;99.90;;;;;;5095169;28;20089;-69
2022/01/09 10:25:33;;;;;;;9.75;1.65;;;5.30;99.90;;;;;;5112547;28;20545;-69
2022/01/09 10:28:20;;;;;;;4.55;1.25;;;5.30;99.90;;;;;;5111322;28;20490;-69
2022/01/09 10:30:48;;;;;;;10.95;1.60;;;5.40;99.90;;;;;;5112798;28;20043;-69
2022/01/09 10:33:21;;;;;;;8.55;1.63;;;5.40;99.90;;;;;;5095705;28;20086;-69
2022/01/09 10:35:49;;;;;;;5.82;1.38;;;5.40;99.90;;;;;;5094997;28;20051;-69
2022/01/09 10:38:33;;;;;;;9.00;1.35;;;5.40;99.90;;;;;;5095590;28;20483;-69
2022/01/09 10:41:03;;;;;;;8.02;1.60;;;5.40;99.90;;;;;;5095243;28;20034;-69
2022/01/09 10:43:41;;;;;;;10.02;1.52;;;5.40;99.90;;;;;;5095306;28;20035;-69
2022/01/09 10:46:07;;;;;;;11.90;1.50;;;5.50;99.90;;;;;;5112404;28;20542;-69
2022/01/09 10:48:34;;;;;;;8.65;1.35;;;5.50;99.90;;;;;;5095690;28;20044;-69
2022/01/09 10:51:01;;;;;;;10.68;1.40;;;5.50;99.90;;;;;;5094840;28;20051;-69
2022/01/09 10:53:36;;;;;;;5.45;1.00;;;5.50;99.90;;;;;;5087521;28;20036;-69
2022/01/09 10:56:18;;;;;;;7.38;1.80;;;5.50;99.90;;;;;;5095867;28;20051;-69
2022/01/09 10:58:54;;;;;;;9.20;1.30;;;5.60;99.90;;;;;;5129202;27;20043;-69
2022/01/09 11:01:31;;;;;;;8.73;1.45;;;5.50;99.90;;;;;;5094946;28;20035;-69
2022/01/09 11:04:00;;;;;;;8.85;1.40;;;5.60;99.90;;;;;;5111795;28;20043;-69
2022/01/09 11:06:31;;;;;;;6.47;1.20;;;5.60;99.90;;;;;;5095040;28;20460;-69
2022/01/09 11:08:59;;;;;;;7.72;1.30;;;5.70;99.90;;;;;;5095265;28;20468;-69
2022/01/09 11:11:33;;;;;;;6.38;1.15;;;5.60;99.90;;;;;;5095067;28;20054;-69
2022/01/09 11:14:02;;;;;;;7.45;1.15;;;5.70;99.90;;;;;;5074762;28;20142;-69
2022/01/09 11:16:42;;;;;;;8.32;1.70;;;5.70;99.90;;;;;;5102132;28;20039;-69
2022/01/09 11:19:08;;;;;;;10.15;1.75;;;5.70;99.90;;;;;;5102837;28;20040;-69
2022/01/09 11:21:35;;;;;;;10.73;1.98;;;5.70;99.90;;;;;;5086302;28;20092;-69
2022/01/09 11:24:10;;;;;;;9.27;1.88;;;5.80;99.90;;;;;;5112235;28;20040;-69
2022/01/09 11:27:03;;;;;;;9.43;1.70;;;5.80;99.90;;;;;;5094390;28;20040;-70
2022/01/09 11:29:52;;;;;;;8.98;1.60;;;5.80;99.90;;;;;;5068074;28;20051;-69
2022/01/09 11:32:40;;;;;;;8.65;1.80;;;5.80;99.90;;;;;;5110964;28;20429;-70
2022/01/09 11:35:18;;;;;;;11.82;1.48;;;5.80;99.90;;;;;;5110874;28;20064;-69
2022/01/09 11:38:01;;;;;;;10.32;1.33;;;5.90;99.90;;;;;;5106159;28;20044;-69
2022/01/09 11:40:30;;;;;;;10.57;1.63;;;6.00;99.90;;;;;;5091992;28;20104;-70
2022/01/09 11:43:03;;;;;;;10.82;1.65;;;6.00;99.90;;;;;;5094850;28;20043;-69
2022/01/09 11:45:45;;;;;;;13.35;1.70;;;6.00;99.90;;;;;;5094117;28;20048;-69
2022/01/09 11:48:11;;;;;;;15.38;1.63;;;6.20;99.90;;;;;;5111250;28;20526;-69
2022/01/09 11:51:06;;;;;;;10.80;1.83;;;6.20;99.90;;;;;;5093570;28;20048;-69
2022/01/09 11:54:02;;;;;;;10.43;1.90;;;6.20;99.90;;;;;;5093204;28;20104;-69
2022/01/09 11:56:54;;;;;;;11.63;1.70;;;6.20;99.90;;;;;;5090389;28;20039;-69
2022/01/09 11:59:22;;;;;;;10.25;2.08;;;6.30;99.90;;;;;;5093933;28;20472;-70
2022/01/09 12:01:50;;;;;;;10.85;1.55;;;6.40;99.90;;;;;;5093860;28;20031;-70
2022/01/09 12:04:31;;;;;;;9.05;1.50;;;6.40;99.90;;;;;;5111295;28;20040;-70
2022/01/09 12:06:58;;;;;;;11.77;1.98;;;6.50;99.90;;;;;;5110392;28;20106;-70
2022/01/09 12:09:34;;;;;;;8.70;1.70;;;6.40;99.90;;;;;;5094145;28;20024;-70
2022/01/09 12:12:03;;;;;;;10.15;1.95;;;6.50;99.90;;;;;;5093747;28;20043;-69
2022/01/09 12:14:56;;;;;;;9.02;1.33;;;6.50;99.90;;;;;;5093983;28;20071;-70
2022/01/09 12:17:25;;;;;;;10.60;1.55;;;6.60;99.90;;;;;;5094092;28;20036;-70
2022/01/09 12:20:13;;;;;;;8.52;1.42;;;6.70;99.90;;;;;;5110865;28;20048;-70
2022/01/09 12:22:49;;;;;;;8.90;1.60;;;6.70;99.90;;;;;;5112182;28;20035;-70
2022/01/09 12:25:32;;;;;;;6.75;1.42;;;6.70;99.90;;;;;;5094064;28;20046;-70
2022/01/09 12:28:14;;;;;;;11.13;1.70;;;6.70;99.90;;;;;;5094882;28;20499;-70
2022/01/09 12:30:43;;;;;;;9.35;1.88;;;6.70;99.90;;;;;;5112177;28;20454;-70
2022/01/09 12:33:22;;;;;;;11.68;2.50;;;6.60;99.90;;;;;;5112416;28;20051;-69
2022/01/09 12:36:02;;;;;;;10.60;1.60;;;6.60;99.90;;;;;;5111689;28;20067;-70
2022/01/09 12:38:30;;;;;;;10.23;1.70;;;6.60;99.90;;;;;;5094964;28;20089;-70
2022/01/09 12:41:01;;;;;;;8.82;1.40;;;6.60;99.90;;;;;;5094902;28;20047;-70
2022/01/09 12:43:28;;;;;;;7.60;1.50;;;6.50;99.90;;;;;;5111482;28;20074;-70
2022/01/09 12:45:54;;;;;;;11.32;1.50;;;6.50;99.90;;;;;;5115623;28;20044;-70
2022/01/09 12:48:27;;;;;;;7.13;1.52;;;6.60;99.90;;;;;;5113295;28;20047;-70
2022/01/09 12:50:53;;;;;;;8.23;1.30;;;6.70;99.90;;;;;;5098052;28;20036;-70
2022/01/09 12:53:22;;;;;;;12.35;2.40;;;6.70;99.90;;;;;;5098027;28;20088;-70
2022/01/09 12:55:58;;;;;;;7.40;1.42;;;6.70;99.90;;;;;;5095533;28;20075;-70